| time (UTC) | temp F | wind direction | speed MPH | gust MPH | rain 1hr in | rain 24hr in | rain mn in | humidity % | barometer mb |
| 20260505183003 | 54 | 323 | 6.0 | 12.0 | 0.00 | 0.00 | 0.00 | 73 | 1014.3 |
| 20260505181524 | 54 | 331 | 6.0 | 12.0 | 0.00 | 0.00 | 0.00 | 71 | 1014.4 |
| 20260505180003 | 55 | 327 | 6.0 | 11.0 | 0.00 | 0.00 | 0.00 | 71 | 1014.4 |
| 20260505174503 | 55 | 320 | 5.0 | 11.0 | 0.00 | 0.00 | 0.00 | 72 | 1014.3 |
| 20260505173003 | 55 | 313 | 5.0 | 10.0 | 0.00 | 0.00 | 0.00 | 73 | 1014.3 |
| 20260505171503 | 55 | 309 | 5.0 | 12.0 | 0.00 | 0.00 | 0.00 | 73 | 1014.5 |
| 20260505170003 | 55 | 309 | 7.0 | 12.0 | 0.00 | 0.00 | 0.00 | 72 | 1014.4 |
| 20260505164524 | 55 | 323 | 4.0 | 10.0 | 0.00 | 0.00 | 0.00 | 74 | 1014.5 |
| 20260505163003 | 55 | 316 | 4.0 | 9.0 | 0.00 | 0.00 | 0.00 | 74 | 1014.6 |
| 20260505161524 | 54 | 332 | 4.0 | 10.0 | 0.00 | 0.00 | 0.00 | 73 | 1014.6 |
| 20260505153003 | 54 | 332 | 4.0 | 8.0 | 0.00 | 0.00 | 0.00 | 73 | 1014.6 |
| 20260505151503 | 54 | 331 | 5.0 | 9.0 | 0.00 | 0.00 | 0.00 | 72 | 1014.6 |
| 20260505124503 | 56 | 314 | 7.0 | 13.0 | 0.00 | 0.00 | 0.00 | 71 | 1014.7 |
| 20260505123024 | 55 | 321 | 6.0 | 13.0 | 0.00 | 0.00 | 0.00 | 73 | 1014.7 |
| 20260505121503 | 54 | 314 | 7.0 | 14.0 | 0.00 | 0.00 | 0.00 | 72 | 1014.8 |
| 20260505120004 | 53 | 327 | 9.0 | 16.0 | 0.00 | 0.00 | 0.00 | 71 | 1014.8 |
| 20260505114503 | 53 | 339 | 7.0 | 16.0 | 0.00 | 0.00 | 0.00 | 73 | 1014.9 |
| 20260505113003 | 55 | 320 | 7.0 | 16.0 | 0.00 | 0.00 | 0.00 | 71 | 1014.8 |
| 20260505111503 | 56 | 315 | 6.0 | 11.0 | 0.00 | 0.00 | 0.00 | 73 | 1014.9 |
| 20260505101524 | 53 | 350 | 7.0 | 15.0 | 0.00 | 0.00 | 0.00 | 75 | 1015.3 |
| 20260505100003 | 54 | 16 | 7.0 | 15.0 | 0.00 | 0.00 | 0.00 | 73 | 1015.0 |
| 20260505094524 | 54 | 9 | 7.0 | 13.0 | 0.00 | 0.00 | 0.00 | 71 | 1015.0 |
| 20260505093003 | 54 | 5 | 5.0 | 10.0 | 0.00 | 0.00 | 0.00 | 73 | 1015.1 |
| 20260505091524 | 53 | 336 | 5.0 | 10.0 | 0.00 | 0.00 | 0.00 | 74 | 1015.1 |
| 20260505090003 | 53 | 354 | 6.0 | 12.0 | 0.00 | 0.00 | 0.00 | 77 | 1015.2 |
| 20260505084524 | 53 | 353 | 7.0 | 11.0 | 0.00 | 0.00 | 0.00 | 79 | 1015.2 |
| 20260505083003 | 53 | 353 | 7.0 | 14.0 | 0.00 | 0.00 | 0.00 | 79 | 1015.2 |
| 20260505081524 | 53 | 359 | 6.0 | 13.0 | 0.00 | 0.00 | 0.00 | 79 | 1015.3 |
| 20260505080003 | 53 | 7 | 5.0 | 11.0 | 0.00 | 0.00 | 0.00 | 79 | 1015.2 |
| 20260505074524 | 52 | 4 | 5.0 | 11.0 | 0.00 | 0.00 | 0.00 | 80 | 1015.2 |
| 20260505073003 | 52 | 355 | 6.0 | 10.0 | 0.00 | 0.00 | 0.00 | 86 | 1015.2 |
| 20260505071503 | 50 | 348 | 3.0 | 8.0 | 0.00 | 0.00 | 0.00 | 92 | 1015.3 |
| 20260505070003 | 48 | 338 | 3.0 | 6.0 | 0.00 | 0.00 | 0.00 | 94 | 1015.3 |
| 20260505064503 | 47 | 343 | 3.0 | 6.0 | 0.00 | 0.00 | 0.00 | 94 | 1015.4 |
| 20260505063002 | 46 | 224 | 2.0 | 4.0 | 0.00 | 0.00 | 0.00 | 94 | 1015.4 |
| 20260505061502 | 45 | 198 | 1.0 | 3.0 | 0.00 | 0.00 | 0.00 | 95 | 1015.4 |
| 20260505060002 | 44 | 199 | 0.0 | 2.0 | 0.00 | 0.00 | 0.00 | 94 | 1015.5 |
| 20260505054523 | 42 | 196 | 0.0 | 2.0 | 0.00 | 0.00 | 0.00 | 94 | 1015.4 |
| 20260505053002 | 41 | 195 | 0.0 | 1.0 | 0.00 | 0.00 | 0.00 | 94 | 1015.3 |
| 20260505051502 | 40 | 0 | 0.0 | 1.0 | 0.00 | 0.00 | 0.00 | 94 | 1015.2 |
| 20260505041502 | 40 | 67 | 0.0 | 1.0 | 0.00 | 0.00 | 0.00 | 93 | 1015.1 |
| 20260505040002 | 41 | 0 | 0.0 | 0.0 | 0.00 | 0.00 | 0.00 | 93 | 1015.0 |
| 20260505034502 | 41 | 309 | 0.0 | 2.0 | 0.00 | 0.00 | 0.00 | 93 | 1014.9 |
| 20260505033002 | 42 | 309 | 2.0 | 3.0 | 0.00 | 0.00 | 0.00 | 93 | 1015.1 |
| 20260505031523 | 42 | 309 | 1.0 | 2.0 | 0.00 | 0.00 | 0.00 | 93 | 1015.0 |
| 20260505030002 | 42 | 309 | 0.0 | 2.0 | 0.00 | 0.00 | 0.00 | 93 | 1014.9 |
| 20260505024502 | 44 | 309 | 1.0 | 2.0 | 0.00 | 0.00 | 0.00 | 93 | 1015.1 |
| 20260505023002 | 44 | 309 | 1.0 | 3.0 | 0.00 | 0.00 | 0.00 | 93 | 1015.2 |
| 20260505021523 | 44 | 309 | 1.0 | 3.0 | 0.00 | 0.00 | 0.00 | 92 | 1015.2 |
| 20260505020002 | 44 | 309 | 1.0 | 2.0 | 0.00 | 0.00 | 0.00 | 92 | 1015.3 |
| 20260505014523 | 44 | 309 | 0.0 | 2.0 | 0.00 | 0.00 | 0.00 | 92 | 1015.4 |
| 20260505013002 | 44 | 309 | 0.0 | 2.0 | 0.00 | 0.00 | 0.00 | 92 | 1015.6 |
| 20260505011523 | 45 | 309 | 0.0 | 1.0 | 0.00 | 0.00 | 0.00 | 92 | 1015.6 |
| 20260505010002 | 46 | 309 | 0.0 | 2.0 | 0.00 | 0.00 | 0.00 | 92 | 1015.7 |
| 20260505004502 | 46 | 309 | 1.0 | 2.0 | 0.00 | 0.00 | 0.00 | 92 | 1015.7 |
| 20260505003002 | 46 | 309 | 1.0 | 2.0 | 0.00 | 0.00 | 0.00 | 92 | 1015.7 |
| 20260505001502 | 46 | 309 | 0.0 | 1.0 | 0.00 | 0.00 | 0.00 | 92 | 1015.9 |
| 20260505000002 | 46 | 309 | 1.0 | 3.0 | 0.00 | 0.00 | 0.00 | 92 | 1016.1 |
| 20260504234502 | 46 | 309 | 2.0 | 3.0 | 0.00 | 0.00 | 0.00 | 92 | 1016.2 |
| 20260504233002 | 45 | 309 | 1.0 | 4.0 | 0.00 | 0.00 | 0.00 | 91 | 1016.2 |
| 20260504231523 | 45 | 309 | 2.0 | 4.0 | 0.00 | 0.00 | 0.00 | 91 | 1016.2 |
| 20260504230002 | 46 | 309 | 1.0 | 2.0 | 0.00 | 0.00 | 0.00 | 90 | 1016.2 |
| 20260504224502 | 46 | 309 | 1.0 | 2.0 | 0.00 | 0.00 | 0.00 | 90 | 1016.1 |
| 20260504223002 | 47 | 309 | 0.0 | 3.0 | 0.00 | 0.00 | 0.00 | 90 | 1016.3 |
| 20260504221502 | 47 | 309 | 1.0 | 3.0 | 0.00 | 0.00 | 0.00 | 90 | 1016.3 |
| 20260504220023 | 48 | 309 | 1.0 | 3.0 | 0.00 | 0.00 | 0.00 | 89 | 1016.4 |
| 20260504214502 | 48 | 309 | 2.0 | 3.0 | 0.00 | 0.00 | 0.00 | 89 | 1016.6 |
| 20260504213002 | 48 | 309 | 1.0 | 2.0 | 0.00 | 0.00 | 0.00 | 88 | 1016.5 |
| 20260504211502 | 50 | 309 | 1.0 | 3.0 | 0.00 | 0.00 | 0.00 | 87 | 1016.5 |
| 20260504210003 | 50 | 309 | 1.0 | 4.0 | 0.00 | 0.00 | 0.00 | 86 | 1016.5 |
| 20260504204502 | 51 | 309 | 2.0 | 8.0 | 0.00 | 0.00 | 0.00 | 86 | 1016.4 |
| 20260504203023 | 52 | 309 | 3.0 | 8.0 | 0.00 | 0.00 | 0.00 | 85 | 1016.3 |
| 20260504201502 | 53 | 310 | 3.0 | 9.0 | 0.00 | 0.00 | 0.00 | 84 | 1016.2 |
| 20260504200002 | 54 | 308 | 5.0 | 10.0 | 0.00 | 0.00 | 0.00 | 83 | 1016.0 |
| 20260504194502 | 55 | 309 | 6.0 | 10.0 | 0.00 | 0.00 | 0.00 | 82 | 1016.0 |
| 20260504193002 | 56 | 321 | 6.0 | 12.0 | 0.00 | 0.00 | 0.00 | 82 | 1015.8 |
| 20260504191502 | 56 | 307 | 3.0 | 6.0 | 0.00 | 0.00 | 0.00 | 82 | 1015.7 |
| 20260504190002 | 56 | 311 | 0.0 | 2.0 | 0.00 | 0.00 | 0.00 | 82 | 1015.6 |
| 20260504184502 | 56 | 308 | 0.0 | 2.0 | 0.00 | 0.00 | 0.00 | 82 | 1015.5 |